In Rescue
 
Open Full Screen Window  High Contrast Mode
Wind Gusting 21 knots
15
October 25, 2021 3:44 PM EDT
Weather Information
Wind Direction
  040 °
Wind Speed
  15 kt (17 mph)
Wind Gust
  21 kt (24 mph)
Altimeter
30.04 in
Visibility
10 SM
Temperature
09° C
48° F
Dewpoint
03° C
37° F
Humidity
66%
Sky Condition
Overcast @ 2,700 ft
MVFR

METAR KCVX 251944Z AUTO 04015G21KT 10SM OVC027 09/03 A3004 RMK AO2 T00850029

FAA Disclaimer: The data displayed is for advisory purposes only and is not to be used for flight planning or operations.